sensor_id;sensor_type;location;lat;lon;timestamp;P1;durP1;ratioP1;P2;durP2;ratioP2
79005;SDS011;69202;45.498;-73.582;2023-06-22T00:00:58;1.73;;;1.50;;
79005;SDS011;69202;45.498;-73.582;2023-06-22T00:03:24;1.67;;;1.58;;
79005;SDS011;69202;45.498;-73.582;2023-06-22T00:05:51;1.90;;;1.70;;
79005;SDS011;69202;45.498;-73.582;2023-06-22T00:08:18;2.97;;;2.08;;
79005;SDS011;69202;45.498;-73.582;2023-06-22T00:10:45;1.63;;;1.52;;
79005;SDS011;69202;45.498;-73.582;2023-06-22T00:13:12;1.67;;;1.58;;
79005;SDS011;69202;45.498;-73.582;2023-06-22T00:15:39;2.40;;;2.20;;
79005;SDS011;69202;45.498;-73.582;2023-06-22T00:18:06;1.60;;;1.50;;
79005;SDS011;69202;45.498;-73.582;2023-06-22T00:20:33;1.90;;;1.73;;
79005;SDS011;69202;45.498;-73.582;2023-06-22T00:23:02;2.90;;;1.40;;
79005;SDS011;69202;45.498;-73.582;2023-06-22T00:25:38;2.00;;;1.80;;
79005;SDS011;69202;45.498;-73.582;2023-06-22T00:28:13;2.00;;;1.80;;
79005;SDS011;69202;45.498;-73.582;2023-06-22T00:30:39;1.85;;;1.75;;
79005;SDS011;69202;45.498;-73.582;2023-06-22T00:33:05;3.15;;;1.75;;
79005;SDS011;69202;45.498;-73.582;2023-06-22T00:35:32;1.77;;;1.67;;
79005;SDS011;69202;45.498;-73.582;2023-06-22T00:37:59;2.60;;;1.98;;
79005;SDS011;69202;45.498;-73.582;2023-06-22T00:40:29;1.80;;;1.70;;
79005;SDS011;69202;45.498;-73.582;2023-06-22T00:42:57;3.88;;;1.80;;
79005;SDS011;69202;45.498;-73.582;2023-06-22T00:45:24;2.30;;;2.10;;
79005;SDS011;69202;45.498;-73.582;2023-06-22T00:47:51;2.20;;;1.90;;
79005;SDS011;69202;45.498;-73.582;2023-06-22T00:50:22;2.60;;;1.83;;
79005;SDS011;69202;45.498;-73.582;2023-06-22T00:52:51;6.10;;;2.00;;
79005;SDS011;69202;45.498;-73.582;2023-06-22T00:55:19;1.70;;;1.60;;
79005;SDS011;69202;45.498;-73.582;2023-06-22T00:57:47;1.90;;;1.80;;
79005;SDS011;69202;45.498;-73.582;2023-06-22T01:00:13;1.83;;;1.67;;
79005;SDS011;69202;45.498;-73.582;2023-06-22T01:02:44;2.22;;;1.77;;
79005;SDS011;69202;45.498;-73.582;2023-06-22T01:05:15;2.15;;;1.90;;
79005;SDS011;69202;45.498;-73.582;2023-06-22T01:07:43;2.20;;;1.63;;
79005;SDS011;69202;45.498;-73.582;2023-06-22T01:13:04;1.95;;;1.85;;
79005;SDS011;69202;45.498;-73.582;2023-06-22T01:15:37;3.92;;;2.10;;
79005;SDS011;69202;45.498;-73.582;2023-06-22T01:18:07;2.80;;;2.05;;
79005;SDS011;69202;45.498;-73.582;2023-06-22T01:20:35;2.65;;;2.10;;
79005;SDS011;69202;45.498;-73.582;2023-06-22T01:28:45;2.30;;;1.83;;
79005;SDS011;69202;45.498;-73.582;2023-06-22T01:31:16;2.25;;;2.05;;
79005;SDS011;69202;45.498;-73.582;2023-06-22T01:33:47;2.30;;;2.10;;
79005;SDS011;69202;45.498;-73.582;2023-06-22T01:36:16;2.33;;;1.80;;
79005;SDS011;69202;45.498;-73.582;2023-06-22T01:38:42;2.03;;;1.90;;
79005;SDS011;69202;45.498;-73.582;2023-06-22T01:41:10;1.70;;;1.60;;
79005;SDS011;69202;45.498;-73.582;2023-06-22T01:43:37;1.63;;;1.52;;
79005;SDS011;69202;45.498;-73.582;2023-06-22T01:46:04;3.97;;;1.80;;
79005;SDS011;69202;45.498;-73.582;2023-06-22T01:48:31;2.03;;;1.83;;
79005;SDS011;69202;45.498;-73.582;2023-06-22T01:50:57;2.25;;;1.90;;
79005;SDS011;69202;45.498;-73.582;2023-06-22T01:53:23;2.00;;;1.90;;
79005;SDS011;69202;45.498;-73.582;2023-06-22T01:55:50;2.10;;;1.80;;
79005;SDS011;69202;45.498;-73.582;2023-06-22T01:58:16;2.58;;;1.90;;
79005;SDS011;69202;45.498;-73.582;2023-06-22T02:00:48;1.67;;;1.58;;
79005;SDS011;69202;45.498;-73.582;2023-06-22T02:03:19;5.00;;;2.78;;
79005;SDS011;69202;45.498;-73.582;2023-06-22T02:08:55;2.20;;;2.00;;
79005;SDS011;69202;45.498;-73.582;2023-06-22T02:11:26;4.18;;;2.35;;
79005;SDS011;69202;45.498;-73.582;2023-06-22T02:13:55;8.30;;;3.47;;
79005;SDS011;69202;45.498;-73.582;2023-06-22T02:16:23;6.00;;;3.22;;
79005;SDS011;69202;45.498;-73.582;2023-06-22T02:18:50;4.72;;;3.33;;
79005;SDS011;69202;45.498;-73.582;2023-06-22T02:21:17;4.75;;;3.33;;
79005;SDS011;69202;45.498;-73.582;2023-06-22T02:23:46;3.35;;;2.65;;
79005;SDS011;69202;45.498;-73.582;2023-06-22T02:26:12;5.50;;;3.83;;
79005;SDS011;69202;45.498;-73.582;2023-06-22T02:28:39;5.03;;;3.25;;
79005;SDS011;69202;45.498;-73.582;2023-06-22T02:31:05;5.45;;;3.40;;
79005;SDS011;69202;45.498;-73.582;2023-06-22T02:33:31;5.00;;;2.50;;
79005;SDS011;69202;45.498;-73.582;2023-06-22T02:35:57;9.38;;;3.60;;
79005;SDS011;69202;45.498;-73.582;2023-06-22T02:38:23;6.47;;;2.97;;
79005;SDS011;69202;45.498;-73.582;2023-06-22T02:40:49;4.43;;;2.60;;
79005;SDS011;69202;45.498;-73.582;2023-06-22T02:43:16;5.63;;;2.78;;
79005;SDS011;69202;45.498;-73.582;2023-06-22T02:45:42;9.80;;;3.25;;
79005;SDS011;69202;45.498;-73.582;2023-06-22T02:48:07;7.53;;;3.88;;
79005;SDS011;69202;45.498;-73.582;2023-06-22T02:50:34;2.90;;;2.20;;
79005;SDS011;69202;45.498;-73.582;2023-06-22T02:53:03;5.65;;;3.38;;
79005;SDS011;69202;45.498;-73.582;2023-06-22T02:55:31;5.82;;;3.17;;
79005;SDS011;69202;45.498;-73.582;2023-06-22T02:57:57;8.75;;;3.25;;
79005;SDS011;69202;45.498;-73.582;2023-06-22T03:00:25;3.85;;;2.50;;
79005;SDS011;69202;45.498;-73.582;2023-06-22T03:02:55;2.83;;;2.53;;
79005;SDS011;69202;45.498;-73.582;2023-06-22T03:05:22;7.57;;;3.65;;
79005;SDS011;69202;45.498;-73.582;2023-06-22T03:07:49;8.10;;;3.58;;
79005;SDS011;69202;45.498;-73.582;2023-06-22T03:10:15;3.03;;;2.30;;
79005;SDS011;69202;45.498;-73.582;2023-06-22T03:12:41;7.38;;;3.78;;
79005;SDS011;69202;45.498;-73.582;2023-06-22T03:15:09;4.45;;;2.70;;
79005;SDS011;69202;45.498;-73.582;2023-06-22T03:17:39;4.80;;;2.60;;
79005;SDS011;69202;45.498;-73.582;2023-06-22T03:20:06;5.07;;;2.53;;
79005;SDS011;69202;45.498;-73.582;2023-06-22T03:22:37;4.63;;;3.63;;
79005;SDS011;69202;45.498;-73.582;2023-06-22T03:25:04;9.90;;;4.38;;
79005;SDS011;69202;45.498;-73.582;2023-06-22T03:27:39;8.30;;;3.88;;
79005;SDS011;69202;45.498;-73.582;2023-06-22T03:30:06;4.65;;;2.75;;
79005;SDS011;69202;45.498;-73.582;2023-06-22T03:32:34;12.15;;;3.95;;
79005;SDS011;69202;45.498;-73.582;2023-06-22T03:35:00;8.18;;;3.92;;
79005;SDS011;69202;45.498;-73.582;2023-06-22T03:37:27;5.75;;;3.60;;
79005;SDS011;69202;45.498;-73.582;2023-06-22T03:39:53;7.80;;;3.70;;
79005;SDS011;69202;45.498;-73.582;2023-06-22T03:42:23;7.40;;;4.35;;
79005;SDS011;69202;45.498;-73.582;2023-06-22T03:44:48;7.28;;;3.67;;
79005;SDS011;69202;45.498;-73.582;2023-06-22T03:47:14;7.55;;;4.18;;
79005;SDS011;69202;45.498;-73.582;2023-06-22T03:49:46;9.60;;;4.00;;
79005;SDS011;69202;45.498;-73.582;2023-06-22T03:52:12;6.72;;;4.22;;
79005;SDS011;69202;45.498;-73.582;2023-06-22T03:54:38;7.75;;;4.30;;
79005;SDS011;69202;45.498;-73.582;2023-06-22T03:57:04;7.38;;;4.38;;
79005;SDS011;69202;45.498;-73.582;2023-06-22T03:59:31;9.82;;;4.75;;
79005;SDS011;69202;45.498;-73.582;2023-06-22T04:01:57;9.80;;;4.60;;
79005;SDS011;69202;45.498;-73.582;2023-06-22T04:04:24;10.48;;;4.10;;
79005;SDS011;69202;45.498;-73.582;2023-06-22T04:06:50;11.38;;;4.32;;
79005;SDS011;69202;45.498;-73.582;2023-06-22T04:09:19;8.60;;;3.55;;
79005;SDS011;69202;45.498;-73.582;2023-06-22T04:11:46;8.70;;;3.80;;
79005;SDS011;69202;45.498;-73.582;2023-06-22T04:14:13;7.28;;;3.70;;
79005;SDS011;69202;45.498;-73.582;2023-06-22T04:16:39;6.25;;;3.72;;
79005;SDS011;69202;45.498;-73.582;2023-06-22T04:19:04;8.60;;;3.85;;
79005;SDS011;69202;45.498;-73.582;2023-06-22T04:21:31;7.97;;;3.17;;
79005;SDS011;69202;45.498;-73.582;2023-06-22T04:23:57;5.50;;;3.08;;
79005;SDS011;69202;45.498;-73.582;2023-06-22T04:26:23;10.23;;;3.60;;
79005;SDS011;69202;45.498;-73.582;2023-06-22T04:28:49;6.93;;;3.30;;
79005;SDS011;69202;45.498;-73.582;2023-06-22T04:31:17;6.97;;;3.33;;
79005;SDS011;69202;45.498;-73.582;2023-06-22T04:33:45;5.30;;;3.28;;
79005;SDS011;69202;45.498;-73.582;2023-06-22T04:36:11;5.43;;;3.15;;
79005;SDS011;69202;45.498;-73.582;2023-06-22T04:38:40;6.50;;;3.13;;
79005;SDS011;69202;45.498;-73.582;2023-06-22T04:41:09;6.85;;;4.00;;
79005;SDS011;69202;45.498;-73.582;2023-06-22T04:43:39;4.72;;;3.20;;
79005;SDS011;69202;45.498;-73.582;2023-06-22T04:46:07;6.25;;;3.08;;
79005;SDS011;69202;45.498;-73.582;2023-06-22T04:48:33;4.32;;;3.10;;
79005;SDS011;69202;45.498;-73.582;2023-06-22T04:51:00;5.35;;;2.85;;
79005;SDS011;69202;45.498;-73.582;2023-06-22T04:53:29;5.13;;;3.50;;
79005;SDS011;69202;45.498;-73.582;2023-06-22T04:55:56;7.20;;;3.47;;
79005;SDS011;69202;45.498;-73.582;2023-06-22T04:58:22;6.70;;;3.80;;
79005;SDS011;69202;45.498;-73.582;2023-06-22T05:00:48;4.25;;;3.53;;
79005;SDS011;69202;45.498;-73.582;2023-06-22T05:03:17;7.20;;;3.20;;
79005;SDS011;69202;45.498;-73.582;2023-06-22T05:05:45;7.15;;;2.65;;
79005;SDS011;69202;45.498;-73.582;2023-06-22T05:08:15;6.28;;;3.78;;
79005;SDS011;69202;45.498;-73.582;2023-06-22T05:10:40;8.93;;;3.90;;
79005;SDS011;69202;45.498;-73.582;2023-06-22T05:13:06;9.48;;;3.90;;
79005;SDS011;69202;45.498;-73.582;2023-06-22T05:15:32;6.55;;;3.88;;
79005;SDS011;69202;45.498;-73.582;2023-06-22T05:18:02;4.78;;;3.40;;
79005;SDS011;69202;45.498;-73.582;2023-06-22T05:20:32;7.10;;;3.42;;
79005;SDS011;69202;45.498;-73.582;2023-06-22T05:23:03;7.45;;;3.80;;
79005;SDS011;69202;45.498;-73.582;2023-06-22T05:25:29;10.15;;;4.22;;
79005;SDS011;69202;45.498;-73.582;2023-06-22T05:27:57;8.20;;;3.55;;
79005;SDS011;69202;45.498;-73.582;2023-06-22T05:30:23;10.25;;;4.30;;
79005;SDS011;69202;45.498;-73.582;2023-06-22T05:32:49;5.53;;;3.83;;
79005;SDS011;69202;45.498;-73.582;2023-06-22T05:35:16;9.48;;;3.95;;
79005;SDS011;69202;45.498;-73.582;2023-06-22T05:37:42;5.55;;;3.80;;
79005;SDS011;69202;45.498;-73.582;2023-06-22T05:40:08;4.82;;;3.67;;
79005;SDS011;69202;45.498;-73.582;2023-06-22T05:42:34;6.97;;;3.78;;
79005;SDS011;69202;45.498;-73.582;2023-06-22T05:45:01;8.93;;;3.97;;
79005;SDS011;69202;45.498;-73.582;2023-06-22T05:47:26;6.40;;;3.78;;
79005;SDS011;69202;45.498;-73.582;2023-06-22T05:49:52;6.57;;;3.33;;
79005;SDS011;69202;45.498;-73.582;2023-06-22T05:52:18;8.60;;;3.90;;
79005;SDS011;69202;45.498;-73.582;2023-06-22T05:54:47;11.65;;;4.18;;
79005;SDS011;69202;45.498;-73.582;2023-06-22T05:57:13;5.22;;;3.63;;
79005;SDS011;69202;45.498;-73.582;2023-06-22T05:59:42;9.68;;;3.60;;
79005;SDS011;69202;45.498;-73.582;2023-06-22T06:02:08;7.18;;;3.22;;
79005;SDS011;69202;45.498;-73.582;2023-06-22T06:04:34;5.15;;;3.90;;
79005;SDS011;69202;45.498;-73.582;2023-06-22T06:07:00;4.57;;;3.53;;
79005;SDS011;69202;45.498;-73.582;2023-06-22T06:09:26;6.38;;;3.50;;
79005;SDS011;69202;45.498;-73.582;2023-06-22T06:11:52;6.47;;;3.22;;
79005;SDS011;69202;45.498;-73.582;2023-06-22T06:14:18;4.93;;;3.50;;
79005;SDS011;69202;45.498;-73.582;2023-06-22T06:16:45;4.22;;;3.83;;
79005;SDS011;69202;45.498;-73.582;2023-06-22T06:19:11;4.47;;;3.22;;
79005;SDS011;69202;45.498;-73.582;2023-06-22T06:21:37;7.57;;;3.22;;
79005;SDS011;69202;45.498;-73.582;2023-06-22T06:24:03;5.13;;;3.55;;
79005;SDS011;69202;45.498;-73.582;2023-06-22T06:26:29;6.18;;;3.63;;
79005;SDS011;69202;45.498;-73.582;2023-06-22T06:28:59;6.40;;;3.58;;
79005;SDS011;69202;45.498;-73.582;2023-06-22T06:31:27;6.15;;;3.38;;
79005;SDS011;69202;45.498;-73.582;2023-06-22T06:33:53;6.22;;;3.65;;
79005;SDS011;69202;45.498;-73.582;2023-06-22T06:36:23;3.50;;;3.15;;
79005;SDS011;69202;45.498;-73.582;2023-06-22T06:38:49;5.30;;;3.10;;
79005;SDS011;69202;45.498;-73.582;2023-06-22T06:41:15;5.38;;;3.17;;
79005;SDS011;69202;45.498;-73.582;2023-06-22T06:43:42;3.63;;;2.92;;
79005;SDS011;69202;45.498;-73.582;2023-06-22T06:46:08;8.27;;;3.15;;
79005;SDS011;69202;45.498;-73.582;2023-06-22T06:48:35;5.40;;;3.40;;
79005;SDS011;69202;45.498;-73.582;2023-06-22T06:51:06;7.18;;;3.60;;
79005;SDS011;69202;45.498;-73.582;2023-06-22T06:53:35;6.45;;;3.30;;
79005;SDS011;69202;45.498;-73.582;2023-06-22T06:56:01;5.80;;;3.33;;
79005;SDS011;69202;45.498;-73.582;2023-06-22T06:58:30;4.15;;;3.10;;
79005;SDS011;69202;45.498;-73.582;2023-06-22T07:00:57;5.43;;;2.85;;
79005;SDS011;69202;45.498;-73.582;2023-06-22T07:03:23;4.85;;;3.40;;
79005;SDS011;69202;45.498;-73.582;2023-06-22T07:05:51;4.38;;;2.85;;
79005;SDS011;69202;45.498;-73.582;2023-06-22T07:08:19;5.55;;;3.17;;
79005;SDS011;69202;45.498;-73.582;2023-06-22T07:10:48;5.65;;;3.42;;
79005;SDS011;69202;45.498;-73.582;2023-06-22T07:13:14;6.95;;;3.00;;
79005;SDS011;69202;45.498;-73.582;2023-06-22T07:15:43;7.15;;;3.20;;
79005;SDS011;69202;45.498;-73.582;2023-06-22T07:18:09;8.77;;;3.28;;
79005;SDS011;69202;45.498;-73.582;2023-06-22T07:20:38;5.63;;;2.75;;
79005;SDS011;69202;45.498;-73.582;2023-06-22T07:23:07;3.92;;;3.03;;
79005;SDS011;69202;45.498;-73.582;2023-06-22T07:25:33;5.38;;;3.13;;
79005;SDS011;69202;45.498;-73.582;2023-06-22T07:28:03;7.32;;;2.90;;
79005;SDS011;69202;45.498;-73.582;2023-06-22T07:30:31;5.20;;;3.03;;
79005;SDS011;69202;45.498;-73.582;2023-06-22T07:32:58;4.10;;;3.08;;
79005;SDS011;69202;45.498;-73.582;2023-06-22T07:35:28;6.38;;;3.30;;
79005;SDS011;69202;45.498;-73.582;2023-06-22T07:37:57;8.13;;;2.90;;
79005;SDS011;69202;45.498;-73.582;2023-06-22T07:40:28;4.45;;;3.08;;
79005;SDS011;69202;45.498;-73.582;2023-06-22T07:42:54;5.22;;;2.60;;
79005;SDS011;69202;45.498;-73.582;2023-06-22T07:45:20;5.13;;;2.80;;
79005;SDS011;69202;45.498;-73.582;2023-06-22T07:47:46;3.95;;;2.92;;
79005;SDS011;69202;45.498;-73.582;2023-06-22T07:50:15;4.95;;;3.38;;
79005;SDS011;69202;45.498;-73.582;2023-06-22T07:52:44;4.53;;;3.03;;
79005;SDS011;69202;45.498;-73.582;2023-06-22T07:55:11;6.68;;;2.92;;
79005;SDS011;69202;45.498;-73.582;2023-06-22T07:57:37;4.80;;;3.05;;
79005;SDS011;69202;45.498;-73.582;2023-06-22T08:00:04;5.32;;;3.35;;
79005;SDS011;69202;45.498;-73.582;2023-06-22T08:02:41;4.47;;;3.15;;
79005;SDS011;69202;45.498;-73.582;2023-06-22T08:05:08;3.45;;;2.95;;
79005;SDS011;69202;45.498;-73.582;2023-06-22T08:07:35;4.60;;;3.20;;
79005;SDS011;69202;45.498;-73.582;2023-06-22T08:10:03;3.55;;;2.90;;
79005;SDS011;69202;45.498;-73.582;2023-06-22T08:12:41;4.43;;;3.05;;
79005;SDS011;69202;45.498;-73.582;2023-06-22T08:15:08;4.90;;;3.40;;
79005;SDS011;69202;45.498;-73.582;2023-06-22T08:17:36;4.40;;;2.85;;
79005;SDS011;69202;45.498;-73.582;2023-06-22T08:20:03;5.80;;;3.08;;
79005;SDS011;69202;45.498;-73.582;2023-06-22T08:22:37;6.45;;;3.28;;
79005;SDS011;69202;45.498;-73.582;2023-06-22T08:25:03;6.13;;;2.97;;
79005;SDS011;69202;45.498;-73.582;2023-06-22T08:27:30;5.20;;;2.80;;
79005;SDS011;69202;45.498;-73.582;2023-06-22T08:29:59;3.22;;;2.65;;
79005;SDS011;69202;45.498;-73.582;2023-06-22T08:32:29;6.53;;;3.13;;
79005;SDS011;69202;45.498;-73.582;2023-06-22T08:34:56;5.28;;;2.45;;
79005;SDS011;69202;45.498;-73.582;2023-06-22T08:37:22;5.28;;;2.95;;
79005;SDS011;69202;45.498;-73.582;2023-06-22T08:39:56;2.83;;;2.58;;
79005;SDS011;69202;45.498;-73.582;2023-06-22T08:42:22;4.78;;;2.60;;
79005;SDS011;69202;45.498;-73.582;2023-06-22T08:44:50;3.00;;;2.70;;
79005;SDS011;69202;45.498;-73.582;2023-06-22T08:47:16;3.45;;;3.05;;
79005;SDS011;69202;45.498;-73.582;2023-06-22T08:49:44;4.45;;;3.08;;
79005;SDS011;69202;45.498;-73.582;2023-06-22T08:52:12;5.03;;;2.92;;
79005;SDS011;69202;45.498;-73.582;2023-06-22T08:54:38;4.63;;;3.17;;
79005;SDS011;69202;45.498;-73.582;2023-06-22T08:57:04;5.13;;;3.22;;
79005;SDS011;69202;45.498;-73.582;2023-06-22T08:59:31;6.13;;;4.30;;
79005;SDS011;69202;45.498;-73.582;2023-06-22T09:01:57;6.00;;;4.85;;
79005;SDS011;69202;45.498;-73.582;2023-06-22T09:04:24;9.15;;;6.22;;
79005;SDS011;69202;45.498;-73.582;2023-06-22T09:06:55;13.20;;;9.68;;
79005;SDS011;69202;45.498;-73.582;2023-06-22T09:09:21;13.63;;;9.85;;
79005;SDS011;69202;45.498;-73.582;2023-06-22T09:11:47;13.45;;;9.65;;
79005;SDS011;69202;45.498;-73.582;2023-06-22T09:14:16;14.70;;;9.32;;
79005;SDS011;69202;45.498;-73.582;2023-06-22T09:16:42;15.52;;;11.90;;
79005;SDS011;69202;45.498;-73.582;2023-06-22T09:19:11;19.65;;;13.35;;
79005;SDS011;69202;45.498;-73.582;2023-06-22T09:21:39;19.35;;;14.50;;
79005;SDS011;69202;45.498;-73.582;2023-06-22T09:24:05;22.55;;;15.23;;
79005;SDS011;69202;45.498;-73.582;2023-06-22T09:26:41;17.67;;;13.40;;
79005;SDS011;69202;45.498;-73.582;2023-06-22T09:29:07;13.77;;;10.85;;
79005;SDS011;69202;45.498;-73.582;2023-06-22T09:31:33;14.32;;;10.65;;
79005;SDS011;69202;45.498;-73.582;2023-06-22T09:34:02;11.75;;;9.20;;
79005;SDS011;69202;45.498;-73.582;2023-06-22T09:36:28;12.15;;;8.60;;
79005;SDS011;69202;45.498;-73.582;2023-06-22T09:38:56;8.23;;;5.80;;
79005;SDS011;69202;45.498;-73.582;2023-06-22T09:41:24;8.02;;;5.20;;
79005;SDS011;69202;45.498;-73.582;2023-06-22T09:43:50;7.88;;;4.68;;
79005;SDS011;69202;45.498;-73.582;2023-06-22T09:46:16;5.22;;;4.18;;
79005;SDS011;69202;45.498;-73.582;2023-06-22T09:48:43;6.75;;;3.70;;
79005;SDS011;69202;45.498;-73.582;2023-06-22T09:51:09;7.90;;;3.40;;
79005;SDS011;69202;45.498;-73.582;2023-06-22T09:53:35;6.30;;;3.30;;
79005;SDS011;69202;45.498;-73.582;2023-06-22T09:56:02;3.88;;;3.33;;
79005;SDS011;69202;45.498;-73.582;2023-06-22T09:58:29;4.85;;;3.50;;
79005;SDS011;69202;45.498;-73.582;2023-06-22T10:00:55;4.85;;;3.55;;
79005;SDS011;69202;45.498;-73.582;2023-06-22T10:03:20;7.25;;;3.60;;
79005;SDS011;69202;45.498;-73.582;2023-06-22T10:05:49;8.70;;;3.47;;
79005;SDS011;69202;45.498;-73.582;2023-06-22T10:08:17;8.75;;;3.00;;
79005;SDS011;69202;45.498;-73.582;2023-06-22T10:10:43;4.43;;;3.50;;
79005;SDS011;69202;45.498;-73.582;2023-06-22T10:13:09;5.43;;;3.42;;
79005;SDS011;69202;45.498;-73.582;2023-06-22T10:15:36;4.95;;;3.20;;
79005;SDS011;69202;45.498;-73.582;2023-06-22T10:18:02;4.93;;;3.13;;
79005;SDS011;69202;45.498;-73.582;2023-06-22T10:20:29;4.60;;;3.10;;
79005;SDS011;69202;45.498;-73.582;2023-06-22T10:22:57;7.78;;;3.42;;
79005;SDS011;69202;45.498;-73.582;2023-06-22T10:25:23;4.28;;;3.38;;
79005;SDS011;69202;45.498;-73.582;2023-06-22T10:27:50;6.63;;;3.75;;
79005;SDS011;69202;45.498;-73.582;2023-06-22T10:30:16;7.38;;;3.13;;
79005;SDS011;69202;45.498;-73.582;2023-06-22T10:32:42;6.72;;;3.40;;
79005;SDS011;69202;45.498;-73.582;2023-06-22T10:35:09;5.97;;;3.22;;
79005;SDS011;69202;45.498;-73.582;2023-06-22T10:37:41;5.88;;;3.55;;
79005;SDS011;69202;45.498;-73.582;2023-06-22T10:40:08;6.68;;;3.67;;
79005;SDS011;69202;45.498;-73.582;2023-06-22T10:42:35;7.82;;;3.35;;
79005;SDS011;69202;45.498;-73.582;2023-06-22T10:45:01;6.95;;;3.40;;
79005;SDS011;69202;45.498;-73.582;2023-06-22T10:47:27;6.90;;;3.72;;
79005;SDS011;69202;45.498;-73.582;2023-06-22T10:49:53;10.13;;;3.30;;
79005;SDS011;69202;45.498;-73.582;2023-06-22T10:52:19;7.18;;;3.40;;
79005;SDS011;69202;45.498;-73.582;2023-06-22T10:54:45;7.13;;;3.20;;
79005;SDS011;69202;45.498;-73.582;2023-06-22T10:57:14;5.97;;;3.53;;
79005;SDS011;69202;45.498;-73.582;2023-06-22T10:59:40;9.57;;;3.90;;
79005;SDS011;69202;45.498;-73.582;2023-06-22T11:02:05;8.50;;;3.47;;
79005;SDS011;69202;45.498;-73.582;2023-06-22T11:04:34;6.32;;;3.13;;
79005;SDS011;69202;45.498;-73.582;2023-06-22T11:07:00;9.07;;;3.20;;
79005;SDS011;69202;45.498;-73.582;2023-06-22T11:09:26;8.18;;;4.00;;
79005;SDS011;69202;45.498;-73.582;2023-06-22T11:11:52;14.52;;;3.55;;
79005;SDS011;69202;45.498;-73.582;2023-06-22T11:14:21;16.17;;;3.78;;
79005;SDS011;69202;45.498;-73.582;2023-06-22T11:16:48;12.90;;;3.70;;
79005;SDS011;69202;45.498;-73.582;2023-06-22T11:19:14;17.90;;;4.82;;
79005;SDS011;69202;45.498;-73.582;2023-06-22T11:21:40;6.97;;;3.63;;
79005;SDS011;69202;45.498;-73.582;2023-06-22T11:24:06;6.40;;;3.28;;
79005;SDS011;69202;45.498;-73.582;2023-06-22T11:26:32;13.48;;;4.25;;
79005;SDS011;69202;45.498;-73.582;2023-06-22T11:28:59;12.35;;;4.07;;
79005;SDS011;69202;45.498;-73.582;2023-06-22T11:31:25;6.10;;;3.92;;
79005;SDS011;69202;45.498;-73.582;2023-06-22T11:33:51;8.63;;;3.67;;
79005;SDS011;69202;45.498;-73.582;2023-06-22T11:36:17;12.88;;;4.43;;
79005;SDS011;69202;45.498;-73.582;2023-06-22T11:38:43;8.43;;;3.72;;
79005;SDS011;69202;45.498;-73.582;2023-06-22T11:41:09;6.30;;;3.83;;
79005;SDS011;69202;45.498;-73.582;2023-06-22T11:43:36;8.90;;;4.03;;
79005;SDS011;69202;45.498;-73.582;2023-06-22T11:46:02;8.57;;;3.90;;
79005;SDS011;69202;45.498;-73.582;2023-06-22T11:48:29;7.95;;;4.03;;
79005;SDS011;69202;45.498;-73.582;2023-06-22T11:50:55;8.90;;;4.13;;
79005;SDS011;69202;45.498;-73.582;2023-06-22T11:53:23;11.85;;;4.60;;
79005;SDS011;69202;45.498;-73.582;2023-06-22T11:55:50;7.50;;;4.30;;
79005;SDS011;69202;45.498;-73.582;2023-06-22T11:58:16;7.20;;;4.43;;
79005;SDS011;69202;45.498;-73.582;2023-06-22T12:00:42;8.93;;;4.47;;
79005;SDS011;69202;45.498;-73.582;2023-06-22T12:03:08;18.90;;;5.40;;
79005;SDS011;69202;45.498;-73.582;2023-06-22T12:05:34;10.80;;;4.63;;
79005;SDS011;69202;45.498;-73.582;2023-06-22T12:08:00;14.25;;;4.78;;
79005;SDS011;69202;45.498;-73.582;2023-06-22T12:10:26;15.25;;;5.00;;
79005;SDS011;69202;45.498;-73.582;2023-06-22T12:12:55;16.50;;;6.13;;
79005;SDS011;69202;45.498;-73.582;2023-06-22T12:15:22;19.73;;;5.97;;
79005;SDS011;69202;45.498;-73.582;2023-06-22T12:17:48;10.90;;;4.63;;
79005;SDS011;69202;45.498;-73.582;2023-06-22T12:20:14;17.10;;;5.43;;
79005;SDS011;69202;45.498;-73.582;2023-06-22T12:22:41;25.25;;;5.78;;
79005;SDS011;69202;45.498;-73.582;2023-06-22T12:25:07;10.48;;;4.85;;
79005;SDS011;69202;45.498;-73.582;2023-06-22T12:27:34;17.20;;;5.10;;
79005;SDS011;69202;45.498;-73.582;2023-06-22T12:30:01;22.95;;;6.05;;
79005;SDS011;69202;45.498;-73.582;2023-06-22T12:32:27;11.45;;;5.22;;
79005;SDS011;69202;45.498;-73.582;2023-06-22T12:34:54;16.85;;;5.72;;
79005;SDS011;69202;45.498;-73.582;2023-06-22T12:37:23;16.48;;;5.07;;
79005;SDS011;69202;45.498;-73.582;2023-06-22T12:39:49;15.90;;;5.40;;
79005;SDS011;69202;45.498;-73.582;2023-06-22T12:42:15;22.00;;;4.65;;
79005;SDS011;69202;45.498;-73.582;2023-06-22T12:44:41;15.57;;;4.85;;
79005;SDS011;69202;45.498;-73.582;2023-06-22T12:47:08;10.57;;;4.63;;
79005;SDS011;69202;45.498;-73.582;2023-06-22T12:49:37;11.35;;;4.88;;
79005;SDS011;69202;45.498;-73.582;2023-06-22T12:52:08;15.18;;;4.80;;
79005;SDS011;69202;45.498;-73.582;2023-06-22T12:54:36;12.60;;;4.47;;
79005;SDS011;69202;45.498;-73.582;2023-06-22T12:57:01;11.75;;;4.63;;
79005;SDS011;69202;45.498;-73.582;2023-06-22T12:59:28;15.18;;;4.60;;
79005;SDS011;69202;45.498;-73.582;2023-06-22T13:01:54;15.88;;;5.03;;
79005;SDS011;69202;45.498;-73.582;2023-06-22T13:04:22;14.80;;;4.35;;
79005;SDS011;69202;45.498;-73.582;2023-06-22T13:06:51;10.95;;;4.05;;
79005;SDS011;69202;45.498;-73.582;2023-06-22T13:09:18;10.65;;;4.28;;
79005;SDS011;69202;45.498;-73.582;2023-06-22T13:11:44;13.30;;;4.68;;
79005;SDS011;69202;45.498;-73.582;2023-06-22T13:14:10;8.48;;;3.97;;
79005;SDS011;69202;45.498;-73.582;2023-06-22T13:16:36;8.15;;;4.30;;
79005;SDS011;69202;45.498;-73.582;2023-06-22T13:19:02;8.20;;;4.32;;
79005;SDS011;69202;45.498;-73.582;2023-06-22T13:21:29;15.20;;;4.10;;
79005;SDS011;69202;45.498;-73.582;2023-06-22T13:23:56;12.98;;;4.30;;
79005;SDS011;69202;45.498;-73.582;2023-06-22T13:26:22;14.23;;;4.70;;
79005;SDS011;69202;45.498;-73.582;2023-06-22T13:28:47;15.20;;;4.47;;
79005;SDS011;69202;45.498;-73.582;2023-06-22T13:31:13;16.25;;;4.38;;
79005;SDS011;69202;45.498;-73.582;2023-06-22T13:33:39;12.48;;;4.43;;
79005;SDS011;69202;45.498;-73.582;2023-06-22T13:36:10;7.97;;;4.07;;
79005;SDS011;69202;45.498;-73.582;2023-06-22T13:38:36;16.77;;;4.53;;
79005;SDS011;69202;45.498;-73.582;2023-06-22T13:41:04;11.82;;;3.92;;
79005;SDS011;69202;45.498;-73.582;2023-06-22T13:43:30;8.85;;;4.25;;
79005;SDS011;69202;45.498;-73.582;2023-06-22T13:45:57;12.00;;;4.50;;
79005;SDS011;69202;45.498;-73.582;2023-06-22T13:48:23;10.60;;;3.65;;
79005;SDS011;69202;45.498;-73.582;2023-06-22T13:50:51;7.90;;;3.55;;
79005;SDS011;69202;45.498;-73.582;2023-06-22T13:53:17;14.00;;;4.72;;
79005;SDS011;69202;45.498;-73.582;2023-06-22T13:55:43;7.78;;;3.75;;
79005;SDS011;69202;45.498;-73.582;2023-06-22T13:58:09;12.13;;;4.50;;
79005;SDS011;69202;45.498;-73.582;2023-06-22T14:00:35;6.15;;;3.20;;
79005;SDS011;69202;45.498;-73.582;2023-06-22T14:03:01;10.80;;;4.18;;
79005;SDS011;69202;45.498;-73.582;2023-06-22T14:05:30;8.93;;;3.75;;
79005;SDS011;69202;45.498;-73.582;2023-06-22T14:07:56;5.72;;;3.28;;
79005;SDS011;69202;45.498;-73.582;2023-06-22T14:10:22;7.35;;;3.25;;
79005;SDS011;69202;45.498;-73.582;2023-06-22T14:12:48;4.57;;;2.92;;
79005;SDS011;69202;45.498;-73.582;2023-06-22T14:15:18;4.63;;;2.90;;
79005;SDS011;69202;45.498;-73.582;2023-06-22T14:17:44;10.07;;;3.20;;
79005;SDS011;69202;45.498;-73.582;2023-06-22T14:20:10;5.75;;;3.08;;
79005;SDS011;69202;45.498;-73.582;2023-06-22T14:22:36;14.80;;;5.28;;
79005;SDS011;69202;45.498;-73.582;2023-06-22T14:25:02;17.48;;;6.40;;
79005;SDS011;69202;45.498;-73.582;2023-06-22T14:27:29;3.97;;;2.88;;
79005;SDS011;69202;45.498;-73.582;2023-06-22T14:29:58;7.68;;;3.67;;